createdAt,value
2022-08-22T00:00:56.568Z,80.22
2022-08-22T00:02:49.265Z,76.80
2022-08-22T00:02:54.059Z,76.29
2022-08-22T00:03:11.074Z,75.86
2022-08-22T00:04:15.098Z,80.10
2022-08-22T00:07:09.532Z,80.27
2022-08-22T00:09:40.120Z,79.95
2022-08-22T00:12:41.153Z,80.28
2022-08-22T00:15:42.433Z,80.09
2022-08-22T00:18:40.302Z,79.80
2022-08-22T00:21:35.537Z,80.28
2022-08-22T00:24:05.277Z,80.14
2022-08-22T00:26:55.822Z,79.82
2022-08-22T00:29:48.450Z,79.55
2022-08-22T00:32:27.425Z,79.55
2022-08-22T00:35:15.922Z,79.83
2022-08-22T00:38:25.133Z,80.08
2022-08-22T00:41:08.488Z,80.30
2022-08-22T00:43:47.519Z,80.42
2022-08-22T00:46:38.927Z,80.92
2022-08-22T00:49:43.371Z,81.30
2022-08-22T00:52:39.852Z,81.20
2022-08-22T00:55:38.528Z,81.20
2022-08-22T00:58:22.963Z,81.09
2022-08-22T01:00:57.747Z,80.97
2022-08-22T01:03:50.052Z,81.45
2022-08-22T01:06:20.778Z,81.66
2022-08-22T01:08:57.278Z,81.82
2022-08-22T01:11:53.065Z,81.97
2022-08-22T01:14:51.721Z,81.76
2022-08-22T01:17:41.143Z,82.20
2022-08-22T01:20:29.741Z,81.80
2022-08-22T01:23:18.700Z,81.63
2022-08-22T01:25:57.873Z,81.13
2022-08-22T01:28:50.727Z,81.24
2022-08-22T01:31:52.531Z,80.74
2022-08-22T01:34:54.819Z,80.87
2022-08-22T01:37:43.774Z,81.06
2022-08-22T01:40:34.616Z,80.65
2022-08-22T01:43:59.582Z,80.08
2022-08-22T01:46:40.064Z,80.12
2022-08-22T01:49:27.076Z,79.93
2022-08-22T01:51:59.593Z,79.66
2022-08-22T01:54:56.800Z,79.74
2022-08-22T01:57:30.928Z,79.99
2022-08-22T02:00:01.998Z,80.04
2022-08-22T02:03:08.588Z,80.47
2022-08-22T02:05:47.376Z,80.64
2022-08-22T02:08:30.826Z,80.03
2022-08-22T02:11:10.982Z,79.88
2022-08-22T02:14:05.915Z,80.05
2022-08-22T02:16:46.592Z,79.68
2022-08-22T02:19:17.209Z,79.34
2022-08-22T02:22:27.065Z,78.76
2022-08-22T02:25:22.183Z,78.66
2022-08-22T02:28:06.903Z,78.73
2022-08-22T02:30:56.139Z,78.56
2022-08-22T02:33:51.684Z,78.11
2022-08-22T02:36:37.415Z,78.32
2022-08-22T02:39:09.309Z,78.46
2022-08-22T02:42:00.523Z,78.78
2022-08-22T02:44:48.061Z,78.84
2022-08-22T02:47:32.648Z,79.24
2022-08-22T02:50:20.672Z,79.01
2022-08-22T02:53:05.365Z,79.02
2022-08-22T02:55:41.635Z,78.86
2022-08-22T02:58:27.606Z,78.92
2022-08-22T03:00:58.085Z,78.50
2022-08-22T03:03:30.805Z,78.16
2022-08-22T03:06:01.413Z,78.92
2022-08-22T03:09:01.417Z,78.31
2022-08-22T03:11:34.057Z,78.24
2022-08-22T03:14:22.269Z,78.41
2022-08-22T03:17:03.667Z,77.64
2022-08-22T03:19:53.341Z,77.79
2022-08-22T03:22:44.888Z,77.33
2022-08-22T03:25:35.671Z,77.83
2022-08-22T03:28:27.738Z,77.83
2022-08-22T03:31:08.425Z,77.71
2022-08-22T03:33:37.996Z,77.33
2022-08-22T03:36:09.869Z,77.67
2022-08-22T03:38:55.344Z,78.10
2022-08-22T03:41:41.635Z,78.61
2022-08-22T03:44:33.542Z,78.61
2022-08-22T03:47:28.117Z,78.57
2022-08-22T03:50:18.427Z,78.37
2022-08-22T03:53:22.301Z,78.17
2022-08-22T03:56:05.342Z,77.78
2022-08-22T03:58:43.244Z,77.61
2022-08-22T04:01:42.212Z,77.48
2022-08-22T04:04:12.127Z,77.71
2022-08-22T04:06:56.403Z,77.42
2022-08-22T04:09:45.559Z,77.63
2022-08-22T04:12:34.041Z,77.49
2022-08-22T04:15:40.667Z,77.62
2022-08-22T04:18:27.296Z,77.76
2022-08-22T04:21:03.927Z,77.91
2022-08-22T04:23:50.132Z,77.81
2022-08-22T04:26:49.912Z,77.62
2022-08-22T04:29:24.140Z,77.85
2022-08-22T04:32:14.411Z,77.50
2022-08-22T04:34:55.100Z,77.42
2022-08-22T04:37:51.428Z,77.42
2022-08-22T04:40:34.578Z,77.23
2022-08-22T04:43:11.578Z,77.08
2022-08-22T04:46:03.094Z,77.49
2022-08-22T04:48:41.335Z,77.69
2022-08-22T04:51:36.689Z,77.74
2022-08-22T04:54:41.544Z,78.17
2022-08-22T04:57:35.032Z,78.28
2022-08-22T05:00:18.947Z,78.00
2022-08-22T05:03:00.559Z,77.95
2022-08-22T05:05:45.732Z,77.65
2022-08-22T05:08:20.739Z,77.91
2022-08-22T05:10:51.611Z,77.64
2022-08-22T05:13:33.633Z,77.78
2022-08-22T05:16:04.486Z,78.11
2022-08-22T05:18:41.277Z,78.10
2022-08-22T05:21:14.114Z,77.88
2022-08-22T05:23:57.773Z,77.62
2022-08-22T05:26:27.830Z,77.42
2022-08-22T05:29:03.943Z,77.41
2022-08-22T05:31:37.633Z,77.65
2022-08-22T05:34:18.286Z,77.47
2022-08-22T05:36:56.512Z,76.96
2022-08-22T05:39:27.819Z,76.77
2022-08-22T05:42:01.458Z,76.98
2022-08-22T05:44:35.562Z,77.35
2022-08-22T05:47:37.140Z,76.91
2022-08-22T05:50:18.985Z,76.68
2022-08-22T05:53:00.036Z,76.19
2022-08-22T05:55:40.882Z,76.13
2022-08-22T05:58:32.543Z,76.27
2022-08-22T06:01:19.615Z,75.73
2022-08-22T06:03:57.741Z,75.59
2022-08-22T06:06:28.701Z,75.44
2022-08-22T06:09:08.567Z,75.07
2022-08-22T06:11:52.023Z,74.88
2022-08-22T06:15:03.596Z,74.48
2022-08-22T06:17:47.331Z,74.41
2022-08-22T06:20:53.649Z,74.63
2022-08-22T06:23:29.753Z,75.07
2022-08-22T06:26:04.782Z,74.89
2022-08-22T06:28:54.982Z,75.02
2022-08-22T06:31:36.730Z,74.62
2022-08-22T06:34:23.493Z,73.29
2022-08-22T06:36:54.055Z,72.92
2022-08-22T06:39:24.890Z,72.37
2022-08-22T06:42:23.495Z,72.21
2022-08-22T06:45:14.434Z,72.45
2022-08-22T06:47:50.167Z,72.92
2022-08-22T06:50:42.839Z,72.70
2022-08-22T06:53:18.496Z,72.54
2022-08-22T06:56:12.622Z,72.45
2022-08-22T06:58:58.433Z,72.65
2022-08-22T07:01:34.587Z,72.37
2022-08-22T07:04:12.313Z,72.54
2022-08-22T07:06:45.830Z,72.46
2022-08-22T07:09:23.484Z,72.32
2022-08-22T07:11:58.555Z,72.23
2022-08-22T07:14:49.879Z,72.22
2022-08-22T07:17:26.740Z,71.79
2022-08-22T07:20:24.320Z,71.75
2022-08-22T07:22:56.618Z,71.92
2022-08-22T07:25:25.475Z,71.62
2022-08-22T07:27:53.129Z,71.92
2022-08-22T07:30:27.352Z,71.56
2022-08-22T07:33:21.037Z,71.69
2022-08-22T07:36:04.584Z,71.79
2022-08-22T07:39:20.053Z,71.45
2022-08-22T07:42:22.154Z,70.79
2022-08-22T07:45:06.561Z,70.91
2022-08-22T07:48:07.163Z,70.94
2022-08-22T07:51:01.926Z,70.46
2022-08-22T07:53:42.866Z,70.32
2022-08-22T07:56:17.718Z,70.54
2022-08-22T07:58:53.838Z,70.25
2022-08-22T08:01:25.178Z,70.56
2022-08-22T08:04:10.877Z,70.14
2022-08-22T08:06:40.343Z,70.26
2022-08-22T08:09:15.975Z,70.36
2022-08-22T08:11:45.355Z,70.27
2022-08-22T08:14:16.945Z,70.00
2022-08-22T08:16:54.489Z,69.67
2022-08-22T08:19:25.226Z,69.62
2022-08-22T08:21:56.479Z,69.66
2022-08-22T08:24:43.382Z,69.67
2022-08-22T08:27:37.119Z,69.27
2022-08-22T08:30:17.738Z,69.41
2022-08-22T08:32:57.360Z,69.28
2022-08-22T08:36:03.525Z,68.36
2022-08-22T08:38:53.326Z,68.94
2022-08-22T08:41:31.040Z,67.90
2022-08-22T08:44:27.656Z,67.77
2022-08-22T08:47:25.606Z,67.18
2022-08-22T08:50:17.897Z,67.08
2022-08-22T08:53:09.966Z,67.06
2022-08-22T08:55:45.808Z,65.99
2022-08-22T08:58:35.156Z,65.76
2022-08-22T09:01:14.387Z,65.57
2022-08-22T09:04:03.478Z,64.94
2022-08-22T09:07:04.357Z,63.95
2022-08-22T09:09:52.396Z,62.99
2022-08-22T09:13:12.196Z,63.06
2022-08-22T09:16:05.519Z,62.75
2022-08-22T09:19:05.852Z,61.57
2022-08-22T09:21:49.189Z,61.46
2022-08-22T09:24:46.396Z,61.99
2022-08-22T09:27:22.109Z,62.00
2022-08-22T09:30:11.677Z,61.56
2022-08-22T09:33:11.236Z,61.65
2022-08-22T09:35:42.079Z,62.25
2022-08-22T09:38:27.987Z,61.61
2022-08-22T09:41:02.780Z,62.34
2022-08-22T09:43:33.571Z,62.05
2022-08-22T09:46:36.600Z,60.54
2022-08-22T09:49:21.396Z,60.84
2022-08-22T09:52:33.180Z,60.41
2022-08-22T09:55:38.314Z,60.06
2022-08-22T09:58:23.808Z,59.75
2022-08-22T10:01:06.821Z,58.68
2022-08-22T10:03:46.585Z,58.00
2022-08-22T10:06:23.400Z,57.21
2022-08-22T10:09:01.150Z,57.27
2022-08-22T10:12:13.012Z,56.81
2022-08-22T10:15:03.109Z,57.18
2022-08-22T10:17:41.042Z,57.76
2022-08-22T10:20:25.804Z,57.13
2022-08-22T10:23:30.984Z,56.73
2022-08-22T10:26:25.961Z,55.74
2022-08-22T10:29:53.003Z,54.88
2022-08-22T10:32:26.954Z,54.97
2022-08-22T10:35:17.858Z,54.78
2022-08-22T10:37:56.046Z,54.82
2022-08-22T10:40:37.621Z,54.54
2022-08-22T10:43:28.826Z,54.48
2022-08-22T10:46:12.669Z,54.43
2022-08-22T10:49:08.063Z,54.09
2022-08-22T10:52:23.486Z,54.00
2022-08-22T10:55:14.911Z,53.58
2022-08-22T10:57:59.988Z,53.79
2022-08-22T11:00:50.007Z,53.40
2022-08-22T11:04:09.102Z,53.00
2022-08-22T11:06:49.171Z,53.42
2022-08-22T11:09:24.327Z,53.84
2022-08-22T11:12:11.347Z,53.54
2022-08-22T11:15:03.894Z,53.70
2022-08-22T11:17:54.505Z,54.13
2022-08-22T11:20:27.861Z,53.64
2022-08-22T11:23:14.490Z,53.83
2022-08-22T11:26:07.926Z,53.73
2022-08-22T11:29:02.861Z,54.22
2022-08-22T11:32:54.888Z,54.05
2022-08-22T11:35:45.750Z,54.21
2022-08-22T11:38:32.643Z,53.78
2022-08-22T11:41:13.225Z,54.56
2022-08-22T11:43:51.922Z,53.93
2022-08-22T11:46:30.347Z,53.85
2022-08-22T11:49:19.071Z,53.67
2022-08-22T11:52:00.665Z,54.21
2022-08-22T11:54:51.801Z,54.02
2022-08-22T11:57:44.379Z,53.73
2022-08-22T12:00:27.353Z,53.41
2022-08-22T12:03:27.360Z,53.08
2022-08-22T12:06:32.008Z,53.87
2022-08-22T12:09:11.865Z,53.44
2022-08-22T12:12:07.845Z,53.28
2022-08-22T12:15:05.162Z,53.46
2022-08-22T12:18:20.029Z,53.78
2022-08-22T12:21:16.785Z,54.57
2022-08-22T12:24:05.927Z,54.44
2022-08-22T12:26:48.497Z,54.69
2022-08-22T12:29:33.814Z,54.67
2022-08-22T12:32:35.526Z,55.44
2022-08-22T12:35:29.905Z,55.97
2022-08-22T12:38:39.985Z,56.67
2022-08-22T12:41:28.028Z,56.82
2022-08-22T12:44:20.781Z,56.69
2022-08-22T12:47:10.046Z,56.57
2022-08-22T12:50:03.854Z,56.65
2022-08-22T12:52:44.308Z,56.39
2022-08-22T12:55:12.040Z,56.03
2022-08-22T12:58:08.700Z,56.31
2022-08-22T13:00:45.447Z,55.92
2022-08-22T13:03:51.700Z,55.57
2022-08-22T13:06:36.233Z,54.83
2022-08-22T13:09:10.278Z,54.61
2022-08-22T13:11:43.139Z,54.68
2022-08-22T13:14:18.550Z,54.53
2022-08-22T13:16:57.514Z,54.79
2022-08-22T13:19:33.201Z,54.89
2022-08-22T13:22:26.581Z,55.92
2022-08-22T13:25:10.773Z,55.77
2022-08-22T13:27:50.618Z,55.85
2022-08-22T13:30:37.729Z,56.30
2022-08-22T13:33:15.042Z,56.20
2022-08-22T13:35:52.375Z,55.09
2022-08-22T13:38:46.347Z,54.86
2022-08-22T13:41:22.863Z,54.93
2022-08-22T13:44:12.429Z,54.89
2022-08-22T13:47:12.862Z,54.68
2022-08-22T13:49:46.985Z,54.91
2022-08-22T13:52:52.588Z,55.02
2022-08-22T13:55:55.661Z,55.37
2022-08-22T13:58:39.532Z,55.49
2022-08-22T14:01:45.643Z,55.29
2022-08-22T14:04:35.993Z,55.66
2022-08-22T14:07:06.777Z,55.74
2022-08-22T14:09:57.145Z,56.03
2022-08-22T14:12:56.415Z,56.13
2022-08-22T14:15:32.313Z,56.58
2022-08-22T14:18:45.547Z,56.58
2022-08-22T14:21:40.858Z,56.74
2022-08-22T14:24:18.809Z,57.04
2022-08-22T14:26:57.969Z,56.86
2022-08-22T14:29:31.703Z,56.78
2022-08-22T14:32:12.748Z,56.22
2022-08-22T14:34:45.460Z,56.47
2022-08-22T14:37:35.830Z,56.35
2022-08-22T14:40:25.560Z,55.98
2022-08-22T14:43:00.115Z,56.40
2022-08-22T14:45:33.035Z,55.79
2022-08-22T14:48:29.397Z,55.79
2022-08-22T14:51:10.487Z,55.54
2022-08-22T14:53:40.881Z,55.57
2022-08-22T14:56:19.716Z,54.73
2022-08-22T14:58:49.186Z,55.30
2022-08-22T15:01:21.735Z,54.74
2022-08-22T15:04:10.629Z,55.25
2022-08-22T15:06:51.299Z,55.74
2022-08-22T15:09:40.548Z,55.72
2022-08-22T15:12:34.646Z,55.50
2022-08-22T15:15:13.139Z,55.36
2022-08-22T15:17:51.246Z,55.17
2022-08-22T15:20:27.766Z,55.31
2022-08-22T15:23:01.460Z,55.61
2022-08-22T15:25:35.477Z,55.34
2022-08-22T15:28:20.335Z,54.92
2022-08-22T15:30:57.432Z,54.49
2022-08-22T15:33:29.368Z,54.39
2022-08-22T15:36:11.739Z,53.96
2022-08-22T15:38:52.276Z,54.41
2022-08-22T15:41:31.125Z,53.15
2022-08-22T15:44:33.493Z,53.83
2022-08-22T15:47:04.365Z,53.64
2022-08-22T15:49:37.628Z,53.52
2022-08-22T15:52:24.015Z,53.62
2022-08-22T15:54:57.134Z,53.64
2022-08-22T15:57:42.644Z,53.82
2022-08-22T16:00:33.173Z,54.23
2022-08-22T16:03:32.495Z,53.97
2022-08-22T16:06:08.395Z,54.14
2022-08-22T16:08:36.603Z,54.36
2022-08-22T16:11:05.460Z,54.38
2022-08-22T16:13:39.131Z,54.93
2022-08-22T16:16:31.217Z,54.78
2022-08-22T16:18:58.798Z,54.88
2022-08-22T16:21:26.467Z,55.12
2022-08-22T16:23:56.650Z,55.21
2022-08-22T16:26:38.343Z,54.98
2022-08-22T16:29:07.035Z,55.62
2022-08-22T16:31:39.346Z,55.79
2022-08-22T16:34:22.766Z,56.10
2022-08-22T16:37:08.841Z,56.13
2022-08-22T16:39:58.880Z,56.24
2022-08-22T16:42:49.282Z,56.12
2022-08-22T16:45:21.446Z,56.36
2022-08-22T16:47:58.612Z,56.19
2022-08-22T16:50:42.421Z,56.24
2022-08-22T16:53:56.096Z,56.28
2022-08-22T16:56:32.949Z,56.63
2022-08-22T16:59:23.508Z,56.15
2022-08-22T17:02:19.506Z,56.68
2022-08-22T17:05:10.514Z,56.59
2022-08-22T17:08:15.919Z,56.47
2022-08-22T17:11:20.082Z,56.37
2022-08-22T17:13:52.531Z,56.65
2022-08-22T17:16:29.299Z,56.46
2022-08-22T17:19:06.403Z,56.26
2022-08-22T17:21:51.920Z,56.66
2022-08-22T17:24:35.933Z,57.07
2022-08-22T17:27:27.166Z,57.19
2022-08-22T17:30:04.607Z,57.66
2022-08-22T17:33:09.038Z,58.00
2022-08-22T17:36:05.391Z,58.35
2022-08-22T17:39:12.497Z,58.15
2022-08-22T17:41:49.608Z,58.06
2022-08-22T17:45:02.000Z,59.51
2022-08-22T17:47:47.974Z,59.25
2022-08-22T17:50:32.740Z,58.65
2022-08-22T17:53:16.357Z,59.19
2022-08-22T17:56:03.822Z,59.56
2022-08-22T17:58:44.069Z,59.07
2022-08-22T18:01:21.143Z,59.51
2022-08-22T18:04:00.547Z,59.49
2022-08-22T18:06:37.658Z,59.21
2022-08-22T18:09:22.445Z,59.62
2022-08-22T18:11:58.696Z,60.03
2022-08-22T18:14:50.519Z,60.16
2022-08-22T18:17:41.091Z,59.98
2022-08-22T18:20:31.090Z,59.88
2022-08-22T18:23:36.239Z,60.11
2022-08-22T18:26:24.142Z,59.92
2022-08-22T18:28:59.811Z,60.16
2022-08-22T18:32:20.890Z,60.12
2022-08-22T18:35:20.860Z,61.11
2022-08-22T18:38:01.015Z,61.45
2022-08-22T18:40:45.489Z,61.28
2022-08-22T18:43:26.956Z,61.02
2022-08-22T18:46:02.839Z,61.36
2022-08-22T18:49:11.620Z,61.43
2022-08-22T18:51:38.902Z,61.37
2022-08-22T18:54:25.479Z,61.31
2022-08-22T18:56:59.993Z,61.29
2022-08-22T19:00:02.419Z,61.86
2022-08-22T19:02:37.262Z,62.29
2022-08-22T19:05:13.087Z,62.76
2022-08-22T19:07:44.812Z,63.27
2022-08-22T19:10:30.513Z,63.02
2022-08-22T19:13:38.129Z,62.74
2022-08-22T19:16:42.442Z,63.66
2022-08-22T19:19:55.572Z,64.03
2022-08-22T19:22:30.655Z,63.46
2022-08-22T19:25:13.695Z,63.78
2022-08-22T19:28:11.856Z,63.39
2022-08-22T19:30:48.396Z,63.60
2022-08-22T19:33:34.262Z,63.78
2022-08-22T19:36:31.427Z,63.95
2022-08-22T19:39:09.425Z,64.38
2022-08-22T19:42:02.828Z,64.00
2022-08-22T19:44:47.713Z,63.95
2022-08-22T19:47:40.853Z,64.13
2022-08-22T19:50:16.633Z,64.35
2022-08-22T19:53:26.913Z,64.02
2022-08-22T19:56:38.354Z,64.63
2022-08-22T19:59:30.776Z,64.58
2022-08-22T20:02:01.802Z,64.65
2022-08-22T20:04:57.067Z,65.02
2022-08-22T20:07:27.141Z,64.61
2022-08-22T20:10:24.356Z,65.19
2022-08-22T20:13:48.781Z,65.36
2022-08-22T20:16:58.683Z,65.00
2022-08-22T20:22:49.135Z,65.55
2022-08-22T20:25:43.187Z,65.34
2022-08-22T20:28:40.594Z,65.10
2022-08-22T20:31:21.784Z,66.14
2022-08-22T20:34:00.687Z,66.25
2022-08-22T20:36:33.075Z,66.02
2022-08-22T20:39:14.634Z,65.86
2022-08-22T20:41:46.959Z,66.13
2022-08-22T20:44:31.669Z,65.96
2022-08-22T20:47:12.185Z,65.97
2022-08-22T20:49:47.272Z,66.01
2022-08-22T20:52:36.833Z,66.35
2022-08-22T20:55:39.745Z,66.91
2022-08-22T20:58:35.953Z,67.31
2022-08-22T21:01:21.540Z,67.30
2022-08-22T21:03:58.676Z,67.18
2022-08-22T21:06:49.359Z,67.07
2022-08-22T21:09:42.463Z,66.77
2022-08-22T21:12:21.573Z,67.39
2022-08-22T21:14:49.254Z,66.88
2022-08-22T21:17:34.165Z,67.70
2022-08-22T21:20:21.791Z,67.39
2022-08-22T21:22:52.321Z,67.34
2022-08-22T21:25:19.920Z,67.50
2022-08-22T21:27:58.254Z,67.08
2022-08-22T21:30:28.657Z,67.30
2022-08-22T21:32:58.303Z,67.28
2022-08-22T21:35:30.752Z,67.45
2022-08-22T21:37:59.826Z,66.83
2022-08-22T21:40:34.532Z,66.39
2022-08-22T21:43:07.447Z,66.50
2022-08-22T21:45:38.018Z,66.47
2022-08-22T21:48:33.402Z,66.18
2022-08-22T21:51:23.051Z,66.24
2022-08-22T21:54:05.625Z,66.14
2022-08-22T21:56:39.226Z,66.64
2022-08-22T21:59:22.830Z,66.35
2022-08-22T22:01:53.797Z,67.00
2022-08-22T22:04:23.238Z,66.79
2022-08-22T22:06:50.657Z,67.11
2022-08-22T22:09:18.694Z,66.92
2022-08-22T22:11:46.214Z,66.94
2022-08-22T22:14:17.512Z,67.09
2022-08-22T22:16:45.197Z,66.98
2022-08-22T22:19:12.902Z,67.13
2022-08-22T22:21:40.088Z,67.17
2022-08-22T22:24:07.567Z,67.75
2022-08-22T22:26:35.278Z,67.78
2022-08-22T22:29:04.245Z,67.68
2022-08-22T22:31:31.879Z,67.93
2022-08-22T22:34:01.517Z,68.08
2022-08-22T22:36:30.007Z,68.83
2022-08-22T22:38:57.401Z,68.97
2022-08-22T22:41:25.989Z,68.76
2022-08-22T22:43:55.295Z,69.11
2022-08-22T22:46:31.757Z,69.09
2022-08-22T22:48:59.367Z,68.63
2022-08-22T22:51:26.949Z,68.76
2022-08-22T22:54:00.652Z,68.69
2022-08-22T22:56:32.470Z,68.90
2022-08-22T22:59:13.123Z,68.92
2022-08-22T23:02:03.853Z,69.12
2022-08-22T23:04:33.975Z,69.28
2022-08-22T23:07:01.931Z,69.25
2022-08-22T23:09:38.362Z,69.08
2022-08-22T23:12:13.563Z,68.97
2022-08-22T23:14:41.851Z,69.15
2022-08-22T23:17:10.112Z,69.39
2022-08-22T23:19:39.185Z,69.60
2022-08-22T23:22:08.968Z,69.00
2022-08-22T23:24:38.426Z,69.67
2022-08-22T23:27:07.805Z,69.57
2022-08-22T23:29:35.512Z,69.69
2022-08-22T23:32:04.895Z,70.14
2022-08-22T23:34:37.255Z,69.79
2022-08-22T23:37:08.611Z,69.94
2022-08-22T23:39:38.526Z,69.41
2022-08-22T23:42:08.037Z,69.48
2022-08-22T23:44:38.164Z,69.81
2022-08-22T23:47:07.285Z,69.96
2022-08-22T23:49:36.083Z,69.95
2022-08-22T23:52:04.543Z,70.13
2022-08-22T23:54:32.291Z,70.29
2022-08-22T23:57:01.621Z,70.30
2022-08-22T23:59:58.762Z,70.64
